GLO7542 SBEG-SBGR
Flight info
| Callsign | GLO7542 |
|---|---|
| Flight time | 3h 19m |
| Altitude | 35000 |
| Route | UTPAM UZ87 LOKEL/N0469F350 UZ87 ASDOV DCT ZARES |
| Aircraft | B738/M-SDE2E3FGHIRWXY/LB1 |
Departure
| Time | 2026-04-21 18:45 |
|---|---|
| Airport | Eduardo Gomes International Airport (SBEG) |
Arrival
| Time | 2026-04-21 22:04 |
|---|---|
| Airport | São Paulo/Guarulhos–Governor André Franco Montoro International Airport (SBGR) |
| Time | Latitude | Longitude | Altitude | Speed | Heading |
|---|---|---|---|---|---|
| 2026-04-21 18:28 | -3.03281 | -60.04657 | 270 ft | 0 kts | 359° |
| 2026-04-21 18:36 | -3.03289 | -60.04657 | 271 ft | 2 kts | 358° |
| 2026-04-21 18:36 | -3.03305 | -60.04656 | 271 ft | 3 kts | 358° |
| 2026-04-21 18:36 | -3.03325 | -60.04655 | 277 ft | 3 kts | 356° |
| 2026-04-21 18:37 | -3.03343 | -60.04653 | 276 ft | 2 kts | 340° |
| 2026-04-21 18:37 | -3.03353 | -60.04647 | 273 ft | 2 kts | 293° |
| 2026-04-21 18:37 | -3.03355 | -60.04636 | 273 ft | 2 kts | 268° |
| 2026-04-21 18:37 | -3.03355 | -60.04628 | 272 ft | 0 kts | 265° |
| 2026-04-21 18:38 | -3.03356 | -60.04637 | 273 ft | 4 kts | 264° |
| 2026-04-21 18:38 | -3.03363 | -60.04686 | 275 ft | 10 kts | 257° |
| 2026-04-21 18:39 | -3.03388 | -60.04770 | 270 ft | 13 kts | 246° |
| 2026-04-21 18:39 | -3.03439 | -60.04845 | 270 ft | 13 kts | 228° |
| 2026-04-21 18:39 | -3.03504 | -60.04904 | 270 ft | 13 kts | 219° |
| 2026-04-21 18:39 | -3.03561 | -60.04968 | 270 ft | 12 kts | 239° |
| 2026-04-21 18:40 | -3.03590 | -60.05047 | 270 ft | 12 kts | 255° |
| 2026-04-21 18:40 | -3.03612 | -60.05127 | 270 ft | 12 kts | 253° |
| 2026-04-21 18:40 | -3.03630 | -60.05185 | 270 ft | 14 kts | 252° |
| 2026-04-21 18:40 | -3.03660 | -60.05306 | 270 ft | 13 kts | 258° |
| 2026-04-21 18:41 | -3.03677 | -60.05392 | 270 ft | 13 kts | 258° |
| 2026-04-21 18:41 | -3.03692 | -60.05478 | 270 ft | 12 kts | 260° |
| 2026-04-21 18:41 | -3.03707 | -60.05563 | 270 ft | 12 kts | 260° |
| 2026-04-21 18:41 | -3.03702 | -60.05644 | 270 ft | 12 kts | 277° |
| 2026-04-21 18:42 | -3.03695 | -60.05724 | 270 ft | 11 kts | 275° |
| 2026-04-21 18:42 | -3.03692 | -60.05806 | 270 ft | 13 kts | 270° |
| 2026-04-21 18:42 | -3.03691 | -60.05904 | 270 ft | 14 kts | 270° |
| 2026-04-21 18:42 | -3.03691 | -60.05998 | 270 ft | 13 kts | 270° |
| 2026-04-21 18:43 | -3.03693 | -60.06089 | 270 ft | 13 kts | 264° |
| 2026-04-21 18:43 | -3.03738 | -60.06161 | 270 ft | 13 kts | 209° |
| 2026-04-21 18:43 | -3.03822 | -60.06167 | 271 ft | 12 kts | 174° |
| 2026-04-21 18:43 | -3.03856 | -60.06099 | 272 ft | 12 kts | 88° |
| 2026-04-21 18:44 | -3.03855 | -60.06018 | 272 ft | 12 kts | 90° |
| 2026-04-21 18:44 | -3.03856 | -60.05929 | 271 ft | 22 kts | 90° |
| 2026-04-21 18:44 | -3.03857 | -60.05522 | 270 ft | 94 kts | 90° |
| 2026-04-21 18:44 | -3.03859 | -60.04649 | 272 ft | 154 kts | 89° |
| 2026-04-21 18:45 | -3.03875 | -60.03486 | 685 ft | 173 kts | 89° |
| 2026-04-21 18:45 | -3.03896 | -60.02268 | 1423 ft | 175 kts | 89° |
| 2026-04-21 18:45 | -3.03891 | -60.01050 | 2119 ft | 181 kts | 89° |
| 2026-04-21 18:45 | -3.04180 | -59.99733 | 2351 ft | 212 kts | 125° |
| 2026-04-21 18:46 | -3.05376 | -59.98775 | 2597 ft | 233 kts | 149° |
| 2026-04-21 18:46 | -3.06833 | -59.97930 | 2894 ft | 254 kts | 149° |
| 2026-04-21 18:46 | -3.08410 | -59.96995 | 3414 ft | 268 kts | 148° |
| 2026-04-21 18:46 | -3.10007 | -59.96025 | 4339 ft | 267 kts | 147° |
| 2026-04-21 18:47 | -3.11593 | -59.95039 | 5189 ft | 269 kts | 147° |
| 2026-04-21 18:47 | -3.13175 | -59.94039 | 5966 ft | 272 kts | 147° |
| 2026-04-21 18:47 | -3.14773 | -59.93016 | 6742 ft | 274 kts | 147° |
| 2026-04-21 18:47 | -3.16380 | -59.91977 | 7467 ft | 277 kts | 147° |
| 2026-04-21 18:48 | -3.18012 | -59.90916 | 8194 ft | 280 kts | 147° |
| 2026-04-21 18:48 | -3.19637 | -59.89855 | 8904 ft | 283 kts | 147° |
| 2026-04-21 18:48 | -3.21301 | -59.88766 | 9595 ft | 288 kts | 147° |
| 2026-04-21 18:48 | -3.22990 | -59.87657 | 10206 ft | 294 kts | 147° |
| 2026-04-21 18:49 | -3.24768 | -59.86490 | 10385 ft | 316 kts | 147° |
| 2026-04-21 18:49 | -3.26675 | -59.85237 | 10530 ft | 337 kts | 147° |
| 2026-04-21 18:49 | -3.28004 | -59.84363 | 10650 ft | 350 kts | 147° |
| 2026-04-21 18:49 | -3.30775 | -59.82538 | 11397 ft | 363 kts | 147° |
| 2026-04-21 18:50 | -3.32882 | -59.81151 | 11899 ft | 369 kts | 147° |
| 2026-04-21 18:50 | -3.35044 | -59.79727 | 12434 ft | 373 kts | 147° |
| 2026-04-21 18:50 | -3.37218 | -59.78296 | 13049 ft | 374 kts | 147° |
| 2026-04-21 18:50 | -3.39407 | -59.76854 | 13658 ft | 378 kts | 147° |
| 2026-04-21 18:51 | -3.41620 | -59.75397 | 14136 ft | 382 kts | 147° |
| 2026-04-21 18:51 | -3.43853 | -59.73926 | 14603 ft | 386 kts | 147° |
| 2026-04-21 18:51 | -3.46083 | -59.72457 | 15067 ft | 389 kts | 147° |
| 2026-04-21 18:51 | -3.48359 | -59.70957 | 15542 ft | 392 kts | 146° |
| 2026-04-21 18:52 | -3.50649 | -59.69448 | 16014 ft | 395 kts | 146° |
| 2026-04-21 18:52 | -3.52958 | -59.67928 | 16500 ft | 398 kts | 146° |
| 2026-04-21 18:52 | -3.55337 | -59.66482 | 16940 ft | 402 kts | 150° |
| 2026-04-21 18:52 | -3.57772 | -59.65149 | 17373 ft | 405 kts | 151° |
| 2026-04-21 18:53 | -3.60279 | -59.63828 | 17803 ft | 408 kts | 152° |
| 2026-04-21 18:53 | -3.62805 | -59.62504 | 18213 ft | 411 kts | 152° |
| 2026-04-21 18:53 | -3.65353 | -59.61161 | 18571 ft | 414 kts | 151° |
| 2026-04-21 18:53 | -3.67871 | -59.59822 | 18941 ft | 416 kts | 151° |
| 2026-04-21 18:54 | -3.70395 | -59.58471 | 19267 ft | 419 kts | 151° |
| 2026-04-21 18:54 | -3.72976 | -59.57082 | 19631 ft | 421 kts | 151° |
| 2026-04-21 18:54 | -3.75572 | -59.55681 | 20023 ft | 423 kts | 150° |
| 2026-04-21 18:54 | -3.78165 | -59.54280 | 20376 ft | 425 kts | 151° |
| 2026-04-21 18:55 | -3.79895 | -59.53345 | 20607 ft | 426 kts | 151° |
| 2026-04-21 18:55 | -3.83365 | -59.51470 | 21057 ft | 429 kts | 150° |
| 2026-04-21 18:55 | -3.86002 | -59.50045 | 21404 ft | 431 kts | 150° |
| 2026-04-21 18:55 | -3.88643 | -59.48617 | 21732 ft | 433 kts | 151° |
| 2026-04-21 18:56 | -3.91302 | -59.47180 | 22051 ft | 435 kts | 150° |
| 2026-04-21 18:56 | -3.93971 | -59.45738 | 22368 ft | 437 kts | 151° |
| 2026-04-21 18:56 | -3.96666 | -59.44282 | 22699 ft | 438 kts | 150° |
| 2026-04-21 18:56 | -3.99358 | -59.42827 | 23018 ft | 440 kts | 150° |
| 2026-04-21 18:57 | -4.02058 | -59.41368 | 23308 ft | 442 kts | 150° |
| 2026-04-21 18:57 | -4.04740 | -59.39918 | 23560 ft | 443 kts | 150° |
| 2026-04-21 18:57 | -4.07466 | -59.38444 | 23805 ft | 445 kts | 150° |
| 2026-04-21 18:57 | -4.10206 | -59.36962 | 24065 ft | 446 kts | 150° |
| 2026-04-21 18:58 | -4.12910 | -59.35499 | 24312 ft | 447 kts | 150° |
| 2026-04-21 18:58 | -4.15653 | -59.34017 | 24553 ft | 448 kts | 150° |
| 2026-04-21 18:58 | -4.18408 | -59.32527 | 24788 ft | 450 kts | 150° |
| 2026-04-21 18:58 | -4.21177 | -59.31033 | 25021 ft | 451 kts | 150° |
| 2026-04-21 18:59 | -4.23950 | -59.29539 | 25262 ft | 452 kts | 150° |
| 2026-04-21 18:59 | -4.26730 | -59.28042 | 25486 ft | 453 kts | 150° |
| 2026-04-21 18:59 | -4.29478 | -59.26562 | 25717 ft | 454 kts | 150° |
| 2026-04-21 18:59 | -4.32264 | -59.25060 | 25950 ft | 456 kts | 150° |
| 2026-04-21 19:00 | -4.35065 | -59.23550 | 26152 ft | 457 kts | 150° |
| 2026-04-21 19:00 | -4.37867 | -59.22039 | 26378 ft | 458 kts | 150° |
| 2026-04-21 19:00 | -4.40681 | -59.20522 | 26598 ft | 459 kts | 150° |
| 2026-04-21 19:00 | -4.43505 | -59.18999 | 26794 ft | 460 kts | 150° |
| 2026-04-21 19:01 | -4.46334 | -59.17472 | 27000 ft | 462 kts | 150° |
| 2026-04-21 19:01 | -4.49136 | -59.15961 | 27197 ft | 463 kts | 150° |
| 2026-04-21 19:01 | -4.51983 | -59.14424 | 27397 ft | 464 kts | 150° |
| 2026-04-21 19:01 | -4.54834 | -59.12886 | 27603 ft | 465 kts | 150° |
| 2026-04-21 19:02 | -4.57689 | -59.11345 | 27791 ft | 466 kts | 150° |
| 2026-04-21 19:02 | -4.60557 | -59.09798 | 27981 ft | 468 kts | 150° |
| 2026-04-21 19:02 | -4.63402 | -59.08262 | 28150 ft | 469 kts | 150° |
| 2026-04-21 19:02 | -4.66288 | -59.06704 | 28339 ft | 470 kts | 150° |
| 2026-04-21 19:03 | -4.69177 | -59.05145 | 28513 ft | 471 kts | 150° |
| 2026-04-21 19:03 | -4.72033 | -59.03603 | 28691 ft | 472 kts | 150° |
| 2026-04-21 19:03 | -4.74947 | -59.02029 | 28880 ft | 472 kts | 150° |
| 2026-04-21 19:03 | -4.77833 | -59.00472 | 29201 ft | 470 kts | 150° |
| 2026-04-21 19:04 | -4.80712 | -58.98917 | 29507 ft | 468 kts | 150° |
| 2026-04-21 19:04 | -4.83540 | -58.97390 | 29788 ft | 466 kts | 150° |
| 2026-04-21 19:04 | -4.86396 | -58.95847 | 30018 ft | 466 kts | 149° |
| 2026-04-21 19:04 | -4.89251 | -58.94305 | 30226 ft | 466 kts | 149° |
| 2026-04-21 19:05 | -4.92114 | -58.92758 | 30475 ft | 464 kts | 149° |
| 2026-04-21 19:05 | -4.94008 | -58.91735 | 30644 ft | 463 kts | 149° |
| 2026-04-21 19:05 | -4.97775 | -58.89700 | 30956 ft | 462 kts | 149° |
| 2026-04-21 19:05 | -5.00605 | -58.88170 | 31199 ft | 461 kts | 149° |
| 2026-04-21 19:06 | -5.03429 | -58.86644 | 31443 ft | 460 kts | 149° |
| 2026-04-21 19:06 | -5.05292 | -58.85637 | 31607 ft | 459 kts | 149° |
| 2026-04-21 19:06 | -5.09053 | -58.83604 | 31964 ft | 458 kts | 149° |
| 2026-04-21 19:06 | -5.10909 | -58.82601 | 32128 ft | 457 kts | 149° |
| 2026-04-21 19:07 | -5.13707 | -58.81088 | 32376 ft | 456 kts | 149° |
| 2026-04-21 19:07 | -5.17413 | -58.79084 | 32709 ft | 455 kts | 149° |
| 2026-04-21 19:07 | -5.19294 | -58.78067 | 32875 ft | 454 kts | 149° |
| 2026-04-21 19:08 | -5.24863 | -58.75054 | 32889 ft | 458 kts | 149° |
| 2026-04-21 19:08 | -5.30468 | -58.72022 | 32882 ft | 455 kts | 149° |
| 2026-04-21 19:09 | -5.36029 | -58.69014 | 32886 ft | 453 kts | 149° |
| 2026-04-21 19:09 | -5.41572 | -58.66014 | 32888 ft | 451 kts | 149° |
| 2026-04-21 19:10 | -5.47102 | -58.63020 | 32887 ft | 451 kts | 149° |
| 2026-04-21 19:10 | -5.52628 | -58.60028 | 32887 ft | 451 kts | 149° |
| 2026-04-21 19:11 | -5.58157 | -58.57034 | 32892 ft | 452 kts | 149° |
| 2026-04-21 19:11 | -5.63673 | -58.54045 | 32892 ft | 454 kts | 149° |
| 2026-04-21 19:12 | -5.69258 | -58.51019 | 32889 ft | 456 kts | 149° |
| 2026-04-21 19:12 | -5.74828 | -58.48001 | 32888 ft | 457 kts | 149° |
| 2026-04-21 19:13 | -5.80457 | -58.44950 | 32885 ft | 459 kts | 149° |
| 2026-04-21 19:13 | -5.86048 | -58.41919 | 32888 ft | 459 kts | 149° |
| 2026-04-21 19:14 | -5.91691 | -58.38859 | 32890 ft | 459 kts | 149° |
| 2026-04-21 19:14 | -5.97317 | -58.35808 | 32888 ft | 459 kts | 149° |
| 2026-04-21 19:15 | -6.02935 | -58.32760 | 32887 ft | 458 kts | 149° |
| 2026-04-21 19:15 | -6.08511 | -58.29735 | 32886 ft | 457 kts | 149° |
| 2026-04-21 19:16 | -6.14107 | -58.26697 | 32891 ft | 457 kts | 149° |
| 2026-04-21 19:16 | -6.19712 | -58.23654 | 32883 ft | 456 kts | 149° |
| 2026-04-21 19:17 | -6.28094 | -58.19102 | 32889 ft | 456 kts | 149° |
| 2026-04-21 19:17 | -6.33641 | -58.16089 | 32889 ft | 456 kts | 149° |
| 2026-04-21 19:18 | -6.39229 | -58.13053 | 32888 ft | 456 kts | 149° |
| 2026-04-21 19:18 | -6.44825 | -58.10011 | 32886 ft | 457 kts | 149° |
| 2026-04-21 19:19 | -6.50431 | -58.06963 | 32884 ft | 457 kts | 149° |
| 2026-04-21 19:19 | -6.56000 | -58.03935 | 32886 ft | 458 kts | 149° |
| 2026-04-21 19:20 | -6.61625 | -58.00875 | 32883 ft | 459 kts | 149° |
| 2026-04-21 19:20 | -6.67250 | -57.97815 | 32889 ft | 460 kts | 149° |
| 2026-04-21 19:21 | -6.72862 | -57.94761 | 32900 ft | 461 kts | 149° |
| 2026-04-21 19:21 | -6.78523 | -57.91679 | 32888 ft | 461 kts | 149° |
| 2026-04-21 19:22 | -6.84133 | -57.88625 | 32880 ft | 461 kts | 149° |
| 2026-04-21 19:22 | -6.89772 | -57.85554 | 32885 ft | 460 kts | 149° |
| 2026-04-21 19:23 | -6.95405 | -57.82484 | 32877 ft | 461 kts | 149° |
| 2026-04-21 19:23 | -7.01049 | -57.79409 | 32877 ft | 459 kts | 149° |
| 2026-04-21 19:24 | -7.06656 | -57.76353 | 32885 ft | 458 kts | 149° |
| 2026-04-21 19:24 | -7.12236 | -57.73311 | 32879 ft | 457 kts | 149° |
| 2026-04-21 19:25 | -7.17846 | -57.70251 | 32888 ft | 457 kts | 149° |
| 2026-04-21 19:25 | -7.23446 | -57.67195 | 32878 ft | 457 kts | 149° |
| 2026-04-21 19:26 | -7.29015 | -57.64156 | 32890 ft | 457 kts | 149° |
| 2026-04-21 19:26 | -7.34613 | -57.61101 | 32886 ft | 457 kts | 149° |
| 2026-04-21 19:27 | -7.40190 | -57.58056 | 32886 ft | 457 kts | 149° |
| 2026-04-21 19:27 | -7.45763 | -57.55012 | 32882 ft | 457 kts | 149° |
| 2026-04-21 19:28 | -7.51363 | -57.51952 | 32879 ft | 457 kts | 149° |
| 2026-04-21 19:28 | -7.56964 | -57.48891 | 32880 ft | 457 kts | 149° |
| 2026-04-21 19:29 | -7.62531 | -57.45848 | 32879 ft | 457 kts | 149° |
| 2026-04-21 19:29 | -7.68138 | -57.42782 | 32879 ft | 457 kts | 149° |
| 2026-04-21 19:30 | -7.73703 | -57.39738 | 32882 ft | 457 kts | 149° |
| 2026-04-21 19:30 | -7.79316 | -57.36667 | 32882 ft | 457 kts | 149° |
| 2026-04-21 19:31 | -7.84921 | -57.33599 | 32883 ft | 457 kts | 150° |
| 2026-04-21 19:31 | -7.90489 | -57.30550 | 32884 ft | 457 kts | 150° |
| 2026-04-21 19:32 | -7.96072 | -57.27493 | 32883 ft | 458 kts | 149° |
| 2026-04-21 19:32 | -8.01667 | -57.24428 | 32884 ft | 458 kts | 150° |
| 2026-04-21 19:33 | -8.07278 | -57.21353 | 32890 ft | 459 kts | 150° |
| 2026-04-21 19:33 | -8.12946 | -57.18245 | 32897 ft | 467 kts | 150° |
| 2026-04-21 19:34 | -8.18681 | -57.15099 | 32899 ft | 473 kts | 150° |
| 2026-04-21 19:34 | -8.24500 | -57.11907 | 32895 ft | 477 kts | 150° |
| 2026-04-21 19:35 | -8.33227 | -57.07119 | 32883 ft | 475 kts | 150° |
| 2026-04-21 19:36 | -8.39043 | -57.03927 | 32895 ft | 475 kts | 150° |
| 2026-04-21 19:36 | -8.44824 | -57.00752 | 32891 ft | 475 kts | 150° |
| 2026-04-21 19:37 | -8.50616 | -56.97569 | 32890 ft | 475 kts | 150° |
| 2026-04-21 19:37 | -8.56448 | -56.94365 | 32894 ft | 475 kts | 150° |
| 2026-04-21 19:38 | -8.62229 | -56.91186 | 32884 ft | 475 kts | 150° |
| 2026-04-21 19:38 | -8.67064 | -56.88527 | 32886 ft | 475 kts | 150° |
| 2026-04-21 19:39 | -8.73847 | -56.84795 | 32888 ft | 475 kts | 150° |
| 2026-04-21 19:39 | -8.79667 | -56.81592 | 32886 ft | 475 kts | 150° |
| 2026-04-21 19:40 | -8.85437 | -56.78415 | 32884 ft | 475 kts | 150° |
| 2026-04-21 19:40 | -8.91256 | -56.75211 | 32874 ft | 475 kts | 150° |
| 2026-04-21 19:41 | -8.97047 | -56.72020 | 32891 ft | 476 kts | 150° |
| 2026-04-21 19:41 | -9.02883 | -56.68803 | 32884 ft | 476 kts | 150° |
| 2026-04-21 19:42 | -9.08674 | -56.65611 | 32885 ft | 476 kts | 150° |
| 2026-04-21 19:42 | -9.14499 | -56.62398 | 32888 ft | 476 kts | 150° |
| 2026-04-21 19:43 | -9.20322 | -56.59185 | 32885 ft | 476 kts | 150° |
| 2026-04-21 19:43 | -9.26108 | -56.55990 | 32894 ft | 476 kts | 150° |
| 2026-04-21 19:44 | -9.31941 | -56.52770 | 32889 ft | 476 kts | 150° |
| 2026-04-21 19:44 | -9.37769 | -56.49550 | 32890 ft | 476 kts | 150° |
| 2026-04-21 19:45 | -9.43558 | -56.46351 | 32888 ft | 476 kts | 150° |
| 2026-04-21 19:45 | -9.49390 | -56.43126 | 32895 ft | 476 kts | 151° |
| 2026-04-21 19:46 | -9.55183 | -56.39922 | 32904 ft | 476 kts | 151° |
| 2026-04-21 19:46 | -9.61016 | -56.36694 | 32902 ft | 476 kts | 151° |
| 2026-04-21 19:47 | -9.66806 | -56.33488 | 32898 ft | 476 kts | 151° |
| 2026-04-21 19:47 | -9.72643 | -56.30257 | 32906 ft | 477 kts | 151° |
| 2026-04-21 19:48 | -9.78475 | -56.27027 | 33114 ft | 475 kts | 151° |
| 2026-04-21 19:48 | -9.81340 | -56.25440 | 33257 ft | 474 kts | 151° |
| 2026-04-21 19:48 | -9.84234 | -56.23836 | 33382 ft | 473 kts | 151° |
| 2026-04-21 19:49 | -9.90021 | -56.20627 | 33549 ft | 473 kts | 151° |
| 2026-04-21 19:49 | -9.92875 | -56.19044 | 33668 ft | 472 kts | 151° |
| 2026-04-21 19:49 | -9.95762 | -56.17442 | 33793 ft | 471 kts | 151° |
| 2026-04-21 19:49 | -9.98658 | -56.15835 | 33906 ft | 471 kts | 151° |
| 2026-04-21 19:50 | -10.00563 | -56.14777 | 33972 ft | 471 kts | 151° |
| 2026-04-21 19:50 | -10.04373 | -56.12662 | 34088 ft | 471 kts | 151° |
| 2026-04-21 19:50 | -10.07251 | -56.11063 | 34184 ft | 470 kts | 151° |
| 2026-04-21 19:50 | -10.10133 | -56.09463 | 34292 ft | 470 kts | 151° |
| 2026-04-21 19:51 | -10.13006 | -56.07867 | 34393 ft | 470 kts | 151° |
| 2026-04-21 19:51 | -10.18720 | -56.04692 | 34582 ft | 469 kts | 151° |
| 2026-04-21 19:51 | -10.21597 | -56.03092 | 34684 ft | 469 kts | 151° |
| 2026-04-21 19:52 | -10.23500 | -56.02034 | 34751 ft | 469 kts | 151° |
| 2026-04-21 19:52 | -10.29230 | -55.98848 | 34884 ft | 468 kts | 151° |
| 2026-04-21 19:53 | -10.34924 | -55.95680 | 34898 ft | 469 kts | 151° |
| 2026-04-21 19:53 | -10.40667 | -55.92484 | 34894 ft | 469 kts | 151° |
| 2026-04-21 19:54 | -10.46356 | -55.89316 | 34894 ft | 469 kts | 151° |
| 2026-04-21 19:54 | -10.52093 | -55.86120 | 34896 ft | 469 kts | 151° |
| 2026-04-21 19:55 | -10.57816 | -55.82931 | 34895 ft | 469 kts | 151° |
| 2026-04-21 19:55 | -10.63521 | -55.79750 | 34892 ft | 468 kts | 151° |
| 2026-04-21 19:56 | -10.69221 | -55.76570 | 34892 ft | 466 kts | 151° |
| 2026-04-21 19:56 | -10.74870 | -55.73418 | 34891 ft | 464 kts | 151° |
| 2026-04-21 19:57 | -10.80539 | -55.70253 | 34893 ft | 463 kts | 151° |
| 2026-04-21 19:57 | -10.86190 | -55.67097 | 34894 ft | 463 kts | 151° |
| 2026-04-21 19:58 | -10.91809 | -55.63957 | 34895 ft | 463 kts | 151° |
| 2026-04-21 19:58 | -10.97481 | -55.60786 | 34892 ft | 464 kts | 151° |
| 2026-04-21 19:59 | -11.03139 | -55.57622 | 34897 ft | 464 kts | 151° |
| 2026-04-21 19:59 | -11.08782 | -55.54465 | 34891 ft | 464 kts | 151° |
| 2026-04-21 20:00 | -11.14471 | -55.51280 | 34893 ft | 465 kts | 151° |
| 2026-04-21 20:00 | -11.20107 | -55.48123 | 34896 ft | 465 kts | 151° |
| 2026-04-21 20:01 | -11.25793 | -55.44950 | 34892 ft | 465 kts | 153° |
| 2026-04-21 20:01 | -11.31594 | -55.42106 | 34893 ft | 465 kts | 155° |
| 2026-04-21 20:02 | -11.37504 | -55.39382 | 34890 ft | 465 kts | 155° |
| 2026-04-21 20:02 | -11.43400 | -55.36632 | 34886 ft | 465 kts | 155° |
| 2026-04-21 20:03 | -11.49260 | -55.33862 | 34885 ft | 465 kts | 155° |
| 2026-04-21 20:03 | -11.55116 | -55.31084 | 34888 ft | 466 kts | 155° |
| 2026-04-21 20:04 | -11.61003 | -55.28291 | 34889 ft | 466 kts | 155° |
| 2026-04-21 20:04 | -11.66904 | -55.25491 | 34883 ft | 466 kts | 155° |
| 2026-04-21 20:05 | -11.72746 | -55.22719 | 34879 ft | 466 kts | 155° |
| 2026-04-21 20:05 | -11.78567 | -55.19743 | 34881 ft | 466 kts | 152° |
| 2026-04-21 20:06 | -11.84203 | -55.16501 | 34881 ft | 466 kts | 151° |
| 2026-04-21 20:06 | -11.89822 | -55.13241 | 34877 ft | 466 kts | 151° |
| 2026-04-21 20:07 | -11.95493 | -55.09986 | 34880 ft | 466 kts | 152° |
| 2026-04-21 20:07 | -12.01128 | -55.06772 | 34877 ft | 466 kts | 152° |
| 2026-04-21 20:08 | -12.06794 | -55.03542 | 34876 ft | 466 kts | 152° |
| 2026-04-21 20:08 | -12.12427 | -55.00328 | 34883 ft | 465 kts | 152° |
| 2026-04-21 20:09 | -12.18094 | -54.97091 | 34875 ft | 465 kts | 152° |
| 2026-04-21 20:09 | -12.23731 | -54.93871 | 34871 ft | 465 kts | 152° |
| 2026-04-21 20:10 | -12.29357 | -54.90654 | 34866 ft | 465 kts | 152° |
| 2026-04-21 20:10 | -12.35011 | -54.87420 | 34872 ft | 465 kts | 152° |
| 2026-04-21 20:11 | -12.40660 | -54.84187 | 34871 ft | 465 kts | 152° |
| 2026-04-21 20:11 | -12.46315 | -54.80951 | 34870 ft | 465 kts | 152° |
| 2026-04-21 20:12 | -12.51954 | -54.77786 | 34865 ft | 465 kts | 152° |
| 2026-04-21 20:12 | -12.57645 | -54.74611 | 34868 ft | 465 kts | 152° |
| 2026-04-21 20:13 | -12.63311 | -54.71435 | 34871 ft | 464 kts | 152° |
| 2026-04-21 20:13 | -12.68962 | -54.68246 | 34869 ft | 464 kts | 152° |
| 2026-04-21 20:14 | -12.74633 | -54.65039 | 34865 ft | 464 kts | 152° |
| 2026-04-21 20:14 | -12.80266 | -54.61854 | 34869 ft | 464 kts | 152° |
| 2026-04-21 20:15 | -12.85937 | -54.58646 | 34872 ft | 464 kts | 152° |
| 2026-04-21 20:15 | -12.91576 | -54.55463 | 34870 ft | 464 kts | 152° |
| 2026-04-21 20:16 | -12.97258 | -54.52261 | 34874 ft | 464 kts | 152° |
| 2026-04-21 20:16 | -13.02903 | -54.49076 | 34876 ft | 464 kts | 152° |
| 2026-04-21 20:17 | -13.08549 | -54.45889 | 34875 ft | 464 kts | 152° |
| 2026-04-21 20:17 | -13.14222 | -54.42683 | 34873 ft | 464 kts | 152° |
| 2026-04-21 20:18 | -13.18912 | -54.40032 | 34877 ft | 464 kts | 152° |
| 2026-04-21 20:18 | -13.25534 | -54.36286 | 34880 ft | 464 kts | 152° |
| 2026-04-21 20:19 | -13.31167 | -54.33099 | 34882 ft | 464 kts | 152° |
| 2026-04-21 20:19 | -13.36830 | -54.29892 | 34878 ft | 464 kts | 152° |
| 2026-04-21 20:20 | -13.42496 | -54.26682 | 34882 ft | 464 kts | 153° |
| 2026-04-21 20:20 | -13.48129 | -54.23489 | 34889 ft | 464 kts | 153° |
| 2026-04-21 20:21 | -13.53797 | -54.20274 | 34886 ft | 464 kts | 153° |
| 2026-04-21 20:21 | -13.59428 | -54.17079 | 34888 ft | 464 kts | 153° |
| 2026-04-21 20:22 | -13.65098 | -54.13860 | 34890 ft | 464 kts | 153° |
| 2026-04-21 20:22 | -13.73586 | -54.09037 | 34893 ft | 464 kts | 153° |
| 2026-04-21 20:23 | -13.79227 | -54.05830 | 34892 ft | 464 kts | 153° |
| 2026-04-21 20:23 | -13.84892 | -54.02607 | 34896 ft | 464 kts | 153° |
| 2026-04-21 20:24 | -13.90514 | -53.99407 | 34899 ft | 464 kts | 152° |
| 2026-04-21 20:24 | -13.96166 | -53.96188 | 34908 ft | 462 kts | 152° |
| 2026-04-21 20:25 | -14.01787 | -53.92985 | 34891 ft | 461 kts | 152° |
| 2026-04-21 20:25 | -14.07413 | -53.89777 | 34899 ft | 461 kts | 152° |
| 2026-04-21 20:26 | -14.12999 | -53.86585 | 34902 ft | 461 kts | 152° |
| 2026-04-21 20:26 | -14.18614 | -53.83341 | 34902 ft | 461 kts | 152° |
| 2026-04-21 20:27 | -14.24175 | -53.80117 | 34897 ft | 461 kts | 151° |
| 2026-04-21 20:27 | -14.29785 | -53.76866 | 34902 ft | 461 kts | 151° |
| 2026-04-21 20:28 | -14.35379 | -53.73624 | 34907 ft | 461 kts | 151° |
| 2026-04-21 20:28 | -14.40960 | -53.70389 | 34903 ft | 462 kts | 151° |
| 2026-04-21 20:29 | -14.46576 | -53.67133 | 34903 ft | 462 kts | 151° |
| 2026-04-21 20:29 | -14.52177 | -53.63882 | 34909 ft | 462 kts | 151° |
| 2026-04-21 20:30 | -14.57785 | -53.60626 | 34907 ft | 462 kts | 151° |
| 2026-04-21 20:30 | -14.63351 | -53.57392 | 34911 ft | 461 kts | 151° |
| 2026-04-21 20:31 | -14.68966 | -53.54128 | 34908 ft | 462 kts | 151° |
| 2026-04-21 20:31 | -14.74536 | -53.50888 | 34909 ft | 461 kts | 151° |
| 2026-04-21 20:32 | -14.80140 | -53.47627 | 34912 ft | 461 kts | 151° |
| 2026-04-21 20:32 | -14.85737 | -53.44367 | 34910 ft | 461 kts | 151° |
| 2026-04-21 20:33 | -14.91293 | -53.41130 | 34912 ft | 461 kts | 151° |
| 2026-04-21 20:33 | -14.96899 | -53.37861 | 34912 ft | 461 kts | 151° |
| 2026-04-21 20:34 | -15.02498 | -53.34594 | 34910 ft | 461 kts | 151° |
| 2026-04-21 20:34 | -15.08048 | -53.31354 | 34917 ft | 461 kts | 151° |
| 2026-04-21 20:35 | -15.13649 | -53.28083 | 34910 ft | 461 kts | 151° |
| 2026-04-21 20:35 | -15.19239 | -53.24816 | 34909 ft | 461 kts | 151° |
| 2026-04-21 20:36 | -15.24834 | -53.21543 | 34908 ft | 461 kts | 151° |
| 2026-04-21 20:36 | -15.30404 | -53.18284 | 34914 ft | 461 kts | 151° |
| 2026-04-21 20:37 | -15.36003 | -53.15005 | 34912 ft | 461 kts | 151° |
| 2026-04-21 20:37 | -15.41570 | -53.11743 | 34912 ft | 461 kts | 151° |
| 2026-04-21 20:38 | -15.46227 | -53.09013 | 34913 ft | 461 kts | 151° |
| 2026-04-21 20:38 | -15.51813 | -53.05736 | 34906 ft | 461 kts | 151° |
| 2026-04-21 20:39 | -15.57413 | -53.02449 | 34914 ft | 461 kts | 151° |
| 2026-04-21 20:39 | -15.62989 | -52.99174 | 34914 ft | 462 kts | 151° |
| 2026-04-21 20:40 | -15.68581 | -52.95887 | 34911 ft | 462 kts | 151° |
| 2026-04-21 20:40 | -15.74179 | -52.92595 | 34912 ft | 462 kts | 151° |
| 2026-04-21 20:41 | -15.79748 | -52.89318 | 34908 ft | 462 kts | 151° |
| 2026-04-21 20:41 | -15.85353 | -52.86017 | 34915 ft | 462 kts | 151° |
| 2026-04-21 20:42 | -15.90964 | -52.82711 | 34914 ft | 463 kts | 151° |
| 2026-04-21 20:42 | -15.96535 | -52.79427 | 34912 ft | 463 kts | 151° |
| 2026-04-21 20:43 | -16.02143 | -52.76118 | 34911 ft | 463 kts | 151° |
| 2026-04-21 20:43 | -16.07771 | -52.72796 | 34915 ft | 464 kts | 151° |
| 2026-04-21 20:44 | -16.13395 | -52.69473 | 34913 ft | 464 kts | 151° |
| 2026-04-21 20:44 | -16.18983 | -52.66170 | 34915 ft | 464 kts | 151° |
| 2026-04-21 20:45 | -16.24605 | -52.62844 | 34916 ft | 464 kts | 151° |
| 2026-04-21 20:45 | -16.30208 | -52.59527 | 34919 ft | 465 kts | 151° |
| 2026-04-21 20:46 | -16.35831 | -52.56197 | 34920 ft | 465 kts | 151° |
| 2026-04-21 20:46 | -16.41465 | -52.52858 | 34925 ft | 465 kts | 151° |
| 2026-04-21 20:47 | -16.47093 | -52.49520 | 34920 ft | 465 kts | 151° |
| 2026-04-21 20:47 | -16.52720 | -52.46180 | 34924 ft | 465 kts | 151° |
| 2026-04-21 20:48 | -16.58350 | -52.42836 | 34927 ft | 465 kts | 151° |
| 2026-04-21 20:48 | -16.63951 | -52.39507 | 34926 ft | 465 kts | 151° |
| 2026-04-21 20:49 | -16.69589 | -52.36154 | 34928 ft | 465 kts | 151° |
| 2026-04-21 20:49 | -16.75219 | -52.32804 | 34929 ft | 465 kts | 151° |
| 2026-04-21 20:50 | -16.80820 | -52.29468 | 34923 ft | 463 kts | 150° |
| 2026-04-21 20:50 | -16.86385 | -52.26152 | 34927 ft | 463 kts | 150° |
| 2026-04-21 20:51 | -16.91988 | -52.22810 | 34935 ft | 463 kts | 150° |
| 2026-04-21 20:51 | -16.97587 | -52.19469 | 34930 ft | 463 kts | 150° |
| 2026-04-21 20:52 | -17.03151 | -52.16146 | 34939 ft | 462 kts | 150° |
| 2026-04-21 20:52 | -17.08743 | -52.12805 | 34942 ft | 462 kts | 150° |
| 2026-04-21 20:53 | -17.14337 | -52.09459 | 34946 ft | 462 kts | 150° |
| 2026-04-21 20:53 | -17.19900 | -52.06130 | 34949 ft | 462 kts | 150° |
| 2026-04-21 20:54 | -17.25459 | -52.02801 | 34955 ft | 462 kts | 151° |
| 2026-04-21 20:54 | -17.31048 | -51.99452 | 34953 ft | 461 kts | 151° |
| 2026-04-21 20:55 | -17.36621 | -51.96109 | 34956 ft | 461 kts | 151° |
| 2026-04-21 20:55 | -17.42160 | -51.92786 | 34960 ft | 461 kts | 151° |
| 2026-04-21 20:56 | -17.47731 | -51.89440 | 34966 ft | 461 kts | 151° |
| 2026-04-21 20:56 | -17.53302 | -51.86092 | 34965 ft | 461 kts | 151° |
| 2026-04-21 20:57 | -17.58882 | -51.82736 | 34965 ft | 462 kts | 151° |
| 2026-04-21 20:57 | -17.64463 | -51.79377 | 34969 ft | 462 kts | 151° |
| 2026-04-21 20:58 | -17.70005 | -51.76039 | 34964 ft | 462 kts | 151° |
| 2026-04-21 20:58 | -17.75588 | -51.72675 | 34966 ft | 462 kts | 151° |
| 2026-04-21 20:59 | -17.81167 | -51.69309 | 34961 ft | 462 kts | 151° |
| 2026-04-21 20:59 | -17.86737 | -51.65947 | 34963 ft | 462 kts | 151° |
| 2026-04-21 21:00 | -17.92276 | -51.62601 | 34967 ft | 461 kts | 151° |
| 2026-04-21 21:00 | -17.97854 | -51.59229 | 34958 ft | 462 kts | 151° |
| 2026-04-21 21:01 | -18.03437 | -51.55853 | 34969 ft | 462 kts | 151° |
| 2026-04-21 21:01 | -18.08990 | -51.52491 | 34956 ft | 463 kts | 151° |
| 2026-04-21 21:02 | -18.14586 | -51.49101 | 34953 ft | 463 kts | 151° |
| 2026-04-21 21:02 | -18.20135 | -51.45737 | 34951 ft | 463 kts | 152° |
| 2026-04-21 21:03 | -18.25710 | -51.42354 | 34959 ft | 464 kts | 152° |
| 2026-04-21 21:03 | -18.31335 | -51.38939 | 34957 ft | 465 kts | 152° |
| 2026-04-21 21:04 | -18.36937 | -51.35535 | 34950 ft | 465 kts | 152° |
| 2026-04-21 21:04 | -18.42520 | -51.32140 | 34954 ft | 465 kts | 152° |
| 2026-04-21 21:05 | -18.48119 | -51.28733 | 34953 ft | 466 kts | 151° |
| 2026-04-21 21:05 | -18.53756 | -51.25300 | 34950 ft | 466 kts | 151° |
| 2026-04-21 21:06 | -18.59352 | -51.21889 | 34949 ft | 466 kts | 151° |
| 2026-04-21 21:06 | -18.64963 | -51.18467 | 34948 ft | 466 kts | 151° |
| 2026-04-21 21:07 | -18.70583 | -51.15036 | 34952 ft | 467 kts | 151° |
| 2026-04-21 21:07 | -18.76222 | -51.11591 | 34951 ft | 467 kts | 151° |
| 2026-04-21 21:08 | -18.81824 | -51.08167 | 34951 ft | 467 kts | 151° |
| 2026-04-21 21:08 | -18.87454 | -51.04708 | 34953 ft | 468 kts | 149° |
| 2026-04-21 21:09 | -18.92776 | -51.00790 | 34956 ft | 469 kts | 145° |
| 2026-04-21 21:09 | -18.98000 | -50.96654 | 34948 ft | 469 kts | 145° |
| 2026-04-21 21:10 | -19.03236 | -50.92531 | 34953 ft | 468 kts | 145° |
| 2026-04-21 21:10 | -19.08482 | -50.88456 | 34953 ft | 468 kts | 146° |
| 2026-04-21 21:11 | -19.13721 | -50.84409 | 34956 ft | 468 kts | 146° |
| 2026-04-21 21:11 | -19.18977 | -50.80351 | 34954 ft | 468 kts | 146° |
| 2026-04-21 21:12 | -19.24247 | -50.76277 | 34955 ft | 468 kts | 146° |
| 2026-04-21 21:12 | -19.29487 | -50.72221 | 34956 ft | 468 kts | 146° |
| 2026-04-21 21:13 | -19.34760 | -50.68135 | 34964 ft | 468 kts | 146° |
| 2026-04-21 21:13 | -19.39990 | -50.64080 | 34955 ft | 468 kts | 146° |
| 2026-04-21 21:14 | -19.45267 | -50.59985 | 34960 ft | 468 kts | 146° |
| 2026-04-21 21:14 | -19.50502 | -50.55919 | 34960 ft | 468 kts | 146° |
| 2026-04-21 21:15 | -19.55751 | -50.51839 | 34968 ft | 468 kts | 146° |
| 2026-04-21 21:15 | -19.60995 | -50.47758 | 34965 ft | 467 kts | 146° |
| 2026-04-21 21:16 | -19.66246 | -50.43670 | 34966 ft | 466 kts | 146° |
| 2026-04-21 21:16 | -19.71446 | -50.39618 | 34968 ft | 466 kts | 146° |
| 2026-04-21 21:17 | -19.76685 | -50.35532 | 34972 ft | 466 kts | 146° |
| 2026-04-21 21:17 | -19.81889 | -50.31470 | 34967 ft | 465 kts | 146° |
| 2026-04-21 21:18 | -19.87091 | -50.27407 | 34967 ft | 465 kts | 146° |
| 2026-04-21 21:18 | -19.92312 | -50.23325 | 34970 ft | 465 kts | 146° |
| 2026-04-21 21:19 | -19.97520 | -50.19249 | 34970 ft | 465 kts | 146° |
| 2026-04-21 21:19 | -20.02713 | -50.15183 | 34976 ft | 465 kts | 146° |
| 2026-04-21 21:20 | -20.07922 | -50.11100 | 34975 ft | 465 kts | 146° |
| 2026-04-21 21:20 | -20.13158 | -50.06993 | 34981 ft | 466 kts | 146° |
| 2026-04-21 21:21 | -20.18354 | -50.02913 | 34974 ft | 466 kts | 146° |
| 2026-04-21 21:21 | -20.23598 | -49.98792 | 34983 ft | 466 kts | 146° |
| 2026-04-21 21:22 | -20.27924 | -49.95390 | 34981 ft | 466 kts | 146° |
| 2026-04-21 21:22 | -20.33128 | -49.91294 | 34985 ft | 467 kts | 146° |
| 2026-04-21 21:23 | -20.38378 | -49.87159 | 34989 ft | 467 kts | 146° |
| 2026-04-21 21:23 | -20.43601 | -49.83041 | 34990 ft | 468 kts | 146° |
| 2026-04-21 21:24 | -20.48820 | -49.78923 | 34990 ft | 468 kts | 146° |
| 2026-04-21 21:24 | -20.54048 | -49.74794 | 34991 ft | 469 kts | 146° |
| 2026-04-21 21:25 | -20.59310 | -49.70635 | 34990 ft | 469 kts | 146° |
| 2026-04-21 21:25 | -20.64538 | -49.66498 | 35000 ft | 470 kts | 146° |
| 2026-04-21 21:26 | -20.69801 | -49.62331 | 35006 ft | 470 kts | 146° |
| 2026-04-21 21:26 | -20.75082 | -49.58146 | 35011 ft | 471 kts | 146° |
| 2026-04-21 21:27 | -20.80318 | -49.53992 | 35024 ft | 471 kts | 146° |
| 2026-04-21 21:27 | -20.85566 | -49.49826 | 35023 ft | 471 kts | 146° |
| 2026-04-21 21:28 | -20.90847 | -49.45629 | 35020 ft | 471 kts | 146° |
| 2026-04-21 21:29 | -20.98718 | -49.39366 | 35019 ft | 471 kts | 146° |
| 2026-04-21 21:29 | -21.03993 | -49.35165 | 35015 ft | 471 kts | 147° |
| 2026-04-21 21:30 | -21.09240 | -49.30982 | 35014 ft | 471 kts | 147° |
| 2026-04-21 21:30 | -21.14481 | -49.26800 | 35004 ft | 471 kts | 147° |
| 2026-04-21 21:31 | -21.19753 | -49.22590 | 35008 ft | 470 kts | 147° |
| 2026-04-21 21:31 | -21.24981 | -49.18411 | 35017 ft | 471 kts | 147° |
| 2026-04-21 21:32 | -21.30222 | -49.14218 | 34997 ft | 471 kts | 147° |
| 2026-04-21 21:32 | -21.35464 | -49.10020 | 35005 ft | 470 kts | 147° |
| 2026-04-21 21:33 | -21.40709 | -49.05816 | 35011 ft | 470 kts | 147° |
| 2026-04-21 21:33 | -21.45933 | -49.01625 | 35013 ft | 470 kts | 147° |
| 2026-04-21 21:34 | -21.51174 | -48.97417 | 35012 ft | 471 kts | 147° |
| 2026-04-21 21:34 | -21.56425 | -48.93197 | 35008 ft | 471 kts | 147° |
| 2026-04-21 21:35 | -21.61647 | -48.88995 | 35014 ft | 471 kts | 147° |
| 2026-04-21 21:35 | -21.66900 | -48.84766 | 35019 ft | 471 kts | 147° |
| 2026-04-21 21:36 | -21.72140 | -48.80542 | 35013 ft | 471 kts | 147° |
| 2026-04-21 21:36 | -21.77353 | -48.76337 | 35015 ft | 471 kts | 147° |
| 2026-04-21 21:37 | -21.82608 | -48.72094 | 35018 ft | 471 kts | 147° |
| 2026-04-21 21:37 | -21.87831 | -48.67872 | 35022 ft | 471 kts | 147° |
| 2026-04-21 21:38 | -21.93095 | -48.63613 | 35019 ft | 471 kts | 147° |
| 2026-04-21 21:38 | -21.98323 | -48.59380 | 35020 ft | 471 kts | 147° |
| 2026-04-21 21:39 | -22.03561 | -48.55134 | 35017 ft | 471 kts | 147° |
| 2026-04-21 21:39 | -22.08794 | -48.50889 | 35030 ft | 471 kts | 147° |
| 2026-04-21 21:40 | -22.14054 | -48.46617 | 35025 ft | 471 kts | 147° |
| 2026-04-21 21:40 | -22.19287 | -48.42363 | 35033 ft | 471 kts | 147° |
| 2026-04-21 21:41 | -22.24501 | -48.38120 | 35044 ft | 471 kts | 147° |
| 2026-04-21 21:41 | -22.29759 | -48.33839 | 35039 ft | 472 kts | 147° |
| 2026-04-21 21:42 | -22.34985 | -48.29578 | 35041 ft | 472 kts | 147° |
| 2026-04-21 21:42 | -22.40221 | -48.25306 | 35045 ft | 472 kts | 147° |
| 2026-04-21 21:43 | -22.45474 | -48.21015 | 35051 ft | 473 kts | 147° |
| 2026-04-21 21:43 | -22.50716 | -48.16729 | 35043 ft | 473 kts | 147° |
| 2026-04-21 21:43 | -22.53366 | -48.14562 | 34667 ft | 480 kts | 147° |
| 2026-04-21 21:44 | -22.55990 | -48.12414 | 34089 ft | 475 kts | 147° |
| 2026-04-21 21:44 | -22.58608 | -48.10266 | 33306 ft | 468 kts | 147° |
| 2026-04-21 21:44 | -22.61197 | -48.08143 | 32499 ft | 463 kts | 147° |
| 2026-04-21 21:44 | -22.63720 | -48.06073 | 31841 ft | 457 kts | 147° |
| 2026-04-21 21:45 | -22.66236 | -48.04009 | 31286 ft | 449 kts | 147° |
| 2026-04-21 21:45 | -22.68697 | -48.01976 | 30742 ft | 441 kts | 144° |
| 2026-04-21 21:45 | -22.70847 | -47.99666 | 30455 ft | 438 kts | 132° |
| 2026-04-21 21:45 | -22.72658 | -47.96944 | 30198 ft | 454 kts | 124° |
| 2026-04-21 21:46 | -22.74167 | -47.93829 | 29690 ft | 476 kts | 116° |
| 2026-04-21 21:46 | -22.75695 | -47.90637 | 29394 ft | 473 kts | 122° |
| 2026-04-21 21:46 | -22.77366 | -47.87639 | 28920 ft | 466 kts | 124° |
| 2026-04-21 21:46 | -22.79089 | -47.84664 | 28330 ft | 463 kts | 124° |
| 2026-04-21 21:47 | -22.80809 | -47.81714 | 27670 ft | 461 kts | 124° |
| 2026-04-21 21:47 | -22.82513 | -47.78770 | 27104 ft | 458 kts | 124° |
| 2026-04-21 21:47 | -22.84191 | -47.75835 | 26641 ft | 453 kts | 123° |
| 2026-04-21 21:47 | -22.85808 | -47.72979 | 26180 ft | 448 kts | 123° |
| 2026-04-21 21:48 | -22.87430 | -47.70097 | 25683 ft | 444 kts | 123° |
| 2026-04-21 21:48 | -22.89028 | -47.67247 | 25199 ft | 440 kts | 123° |
| 2026-04-21 21:48 | -22.90609 | -47.64420 | 24724 ft | 436 kts | 122° |
| 2026-04-21 21:48 | -22.92179 | -47.61613 | 24266 ft | 432 kts | 122° |
| 2026-04-21 21:49 | -22.93727 | -47.58842 | 23813 ft | 429 kts | 122° |
| 2026-04-21 21:49 | -22.95272 | -47.56076 | 23324 ft | 425 kts | 122° |
| 2026-04-21 21:49 | -22.96796 | -47.53347 | 22795 ft | 421 kts | 122° |
| 2026-04-21 21:49 | -22.98309 | -47.50636 | 22290 ft | 418 kts | 122° |
| 2026-04-21 21:50 | -22.99792 | -47.47980 | 21804 ft | 414 kts | 122° |
| 2026-04-21 21:50 | -23.01256 | -47.45353 | 21844 ft | 398 kts | 122° |
| 2026-04-21 21:50 | -23.02681 | -47.42792 | 21891 ft | 399 kts | 122° |
| 2026-04-21 21:50 | -23.04149 | -47.40154 | 21923 ft | 413 kts | 122° |
| 2026-04-21 21:51 | -23.05510 | -47.37351 | 21658 ft | 420 kts | 116° |
| 2026-04-21 21:51 | -23.06711 | -47.34484 | 21417 ft | 415 kts | 115° |
| 2026-04-21 21:51 | -23.07868 | -47.31671 | 21181 ft | 410 kts | 115° |
| 2026-04-21 21:51 | -23.09060 | -47.28865 | 20940 ft | 407 kts | 116° |
| 2026-04-21 21:52 | -23.10277 | -47.26091 | 20714 ft | 407 kts | 117° |
| 2026-04-21 21:52 | -23.11512 | -47.23313 | 20480 ft | 407 kts | 117° |
| 2026-04-21 21:52 | -23.12590 | -47.20478 | 20218 ft | 408 kts | 104° |
| 2026-04-21 21:52 | -23.12760 | -47.17436 | 19997 ft | 408 kts | 83° |
| 2026-04-21 21:53 | -23.12013 | -47.14473 | 19779 ft | 407 kts | 66° |
| 2026-04-21 21:53 | -23.10504 | -47.11872 | 19549 ft | 406 kts | 49° |
| 2026-04-21 21:53 | -23.08580 | -47.09628 | 19338 ft | 403 kts | 46° |
| 2026-04-21 21:53 | -23.06648 | -47.07437 | 18890 ft | 400 kts | 46° |
| 2026-04-21 21:54 | -23.04948 | -47.05112 | 18420 ft | 397 kts | 63° |
| 2026-04-21 21:54 | -23.04186 | -47.02275 | 17941 ft | 391 kts | 87° |
| 2026-04-21 21:54 | -23.04399 | -46.99356 | 17516 ft | 383 kts | 105° |
| 2026-04-21 21:54 | -23.05364 | -46.96683 | 17041 ft | 377 kts | 121° |
| 2026-04-21 21:55 | -23.06866 | -46.94436 | 16540 ft | 366 kts | 135° |
| 2026-04-21 21:55 | -23.08830 | -46.92754 | 16059 ft | 356 kts | 147° |
| 2026-04-21 21:55 | -23.10918 | -46.91350 | 15576 ft | 348 kts | 149° |
| 2026-04-21 21:55 | -23.12980 | -46.90027 | 15073 ft | 340 kts | 150° |
| 2026-04-21 21:56 | -23.15009 | -46.88732 | 14531 ft | 334 kts | 149° |
| 2026-04-21 21:56 | -23.17001 | -46.87450 | 13982 ft | 330 kts | 149° |
| 2026-04-21 21:56 | -23.18940 | -46.86190 | 13393 ft | 325 kts | 149° |
| 2026-04-21 21:56 | -23.20883 | -46.84919 | 12786 ft | 321 kts | 149° |
| 2026-04-21 21:57 | -23.22784 | -46.83669 | 12197 ft | 317 kts | 149° |
| 2026-04-21 21:57 | -23.24645 | -46.82442 | 11606 ft | 314 kts | 149° |
| 2026-04-21 21:57 | -23.26504 | -46.81215 | 11044 ft | 311 kts | 149° |
| 2026-04-21 21:57 | -23.28345 | -46.79998 | 10517 ft | 307 kts | 149° |
| 2026-04-21 21:58 | -23.30172 | -46.78790 | 9988 ft | 304 kts | 149° |
| 2026-04-21 21:58 | -23.31948 | -46.77614 | 9407 ft | 301 kts | 149° |
| 2026-04-21 21:58 | -23.33730 | -46.76435 | 8857 ft | 298 kts | 149° |
| 2026-04-21 21:58 | -23.35493 | -46.75267 | 8374 ft | 295 kts | 149° |
| 2026-04-21 21:59 | -23.37249 | -46.74105 | 7944 ft | 294 kts | 149° |
| 2026-04-21 21:59 | -23.38994 | -46.72947 | 7544 ft | 290 kts | 149° |
| 2026-04-21 21:59 | -23.40711 | -46.71811 | 7167 ft | 287 kts | 149° |
| 2026-04-21 21:59 | -23.42369 | -46.70673 | 6846 ft | 283 kts | 143° |
| 2026-04-21 22:00 | -23.43660 | -46.69063 | 6572 ft | 283 kts | 124° |
| 2026-04-21 22:00 | -23.44727 | -46.67315 | 6507 ft | 271 kts | 124° |
| 2026-04-21 22:00 | -23.45741 | -46.65665 | 6420 ft | 251 kts | 124° |
| 2026-04-21 22:00 | -23.46684 | -46.64147 | 6296 ft | 232 kts | 124° |
| 2026-04-21 22:01 | -23.47248 | -46.62598 | 6144 ft | 215 kts | 90° |
| 2026-04-21 22:01 | -23.46923 | -46.61107 | 6042 ft | 192 kts | 71° |
| 2026-04-21 22:01 | -23.46528 | -46.59806 | 5932 ft | 169 kts | 73° |
| 2026-04-21 22:01 | -23.46206 | -46.58643 | 5638 ft | 156 kts | 73° |
| 2026-04-21 22:02 | -23.45901 | -46.57521 | 5191 ft | 154 kts | 73° |
| 2026-04-21 22:02 | -23.45602 | -46.56412 | 4762 ft | 149 kts | 72° |
| 2026-04-21 22:02 | -23.45313 | -46.55344 | 4310 ft | 147 kts | 74° |
| 2026-04-21 22:02 | -23.45025 | -46.54277 | 4099 ft | 149 kts | 75° |
| 2026-04-21 22:03 | -23.44719 | -46.53133 | 3654 ft | 159 kts | 79° |
| 2026-04-21 22:03 | -23.44391 | -46.52030 | 3342 ft | 146 kts | 76° |
| 2026-04-21 22:03 | -23.44127 | -46.50988 | 3028 ft | 145 kts | 81° |
| 2026-04-21 22:03 | -23.43860 | -46.49966 | 2807 ft | 140 kts | 77° |
| 2026-04-21 22:04 | -23.43596 | -46.48984 | 2640 ft | 131 kts | 77° |
| 2026-04-21 22:04 | -23.43353 | -46.48055 | 2478 ft | 121 kts | 76° |
| 2026-04-21 22:04 | -23.43147 | -46.47299 | 2470 ft | 85 kts | 73° |
| 2026-04-21 22:04 | -23.43016 | -46.46814 | 2471 ft | 41 kts | 73° |
| 2026-04-21 22:05 | -23.42947 | -46.46763 | 2470 ft | 8 kts | 344° |
| 2026-04-21 22:05 | -23.42892 | -46.46780 | 2469 ft | 8 kts | 344° |
| 2026-04-21 22:05 | -23.42887 | -46.46781 | 2469 ft | 0 kts | 344° |
| 2026-04-21 22:05 | -23.42873 | -46.46785 | 2469 ft | 4 kts | 344° |
| 2026-04-21 22:06 | -23.42855 | -46.46791 | 2468 ft | 4 kts | 343° |
| 2026-04-21 22:06 | -23.42828 | -46.46800 | 2469 ft | 4 kts | 343° |
| 2026-04-21 22:06 | -23.42802 | -46.46811 | 2469 ft | 4 kts | 333° |
| 2026-04-21 22:06 | -23.42779 | -46.46832 | 2471 ft | 4 kts | 304° |
| 2026-04-21 22:07 | -23.42775 | -46.46864 | 2469 ft | 5 kts | 262° |
| 2026-04-21 22:07 | -23.42786 | -46.46898 | 2472 ft | 5 kts | 239° |
| 2026-04-21 22:07 | -23.42796 | -46.46935 | 2471 ft | 6 kts | 257° |
| 2026-04-21 22:07 | -23.42810 | -46.46995 | 2473 ft | 11 kts | 255° |
| 2026-04-21 22:08 | -23.42836 | -46.47097 | 2467 ft | 15 kts | 253° |
| 2026-04-21 22:08 | -23.42865 | -46.47205 | 2467 ft | 14 kts | 254° |
| 2026-04-21 22:08 | -23.42893 | -46.47308 | 2467 ft | 14 kts | 253° |
| 2026-04-21 22:08 | -23.42920 | -46.47406 | 2471 ft | 13 kts | 253° |
| 2026-04-21 22:09 | -23.42945 | -46.47500 | 2472 ft | 13 kts | 255° |
| 2026-04-21 22:09 | -23.42968 | -46.47593 | 2471 ft | 12 kts | 255° |
| 2026-04-21 22:09 | -23.42993 | -46.47682 | 2467 ft | 12 kts | 253° |
| 2026-04-21 22:09 | -23.43017 | -46.47767 | 2469 ft | 12 kts | 254° |
| 2026-04-21 22:10 | -23.43040 | -46.47852 | 2471 ft | 12 kts | 253° |
| 2026-04-21 22:10 | -23.43063 | -46.47935 | 2467 ft | 11 kts | 252° |
| 2026-04-21 22:10 | -23.43086 | -46.48015 | 2470 ft | 11 kts | 253° |
| 2026-04-21 22:10 | -23.43107 | -46.48093 | 2469 ft | 11 kts | 254° |
| 2026-04-21 22:11 | -23.43127 | -46.48169 | 2471 ft | 10 kts | 253° |
| 2026-04-21 22:11 | -23.43146 | -46.48243 | 2469 ft | 10 kts | 254° |
| 2026-04-21 22:11 | -23.43165 | -46.48315 | 2468 ft | 10 kts | 254° |
| 2026-04-21 22:11 | -23.43172 | -46.48386 | 2468 ft | 9 kts | 287° |
| 2026-04-21 22:12 | -23.43121 | -46.48422 | 2472 ft | 9 kts | 344° |
| 2026-04-21 22:12 | -23.43061 | -46.48434 | 2469 ft | 9 kts | 328° |
| 2026-04-21 22:12 | -23.43003 | -46.48450 | 2473 ft | 9 kts | 357° |
| 2026-04-21 22:12 | -23.42945 | -46.48450 | 2469 ft | 8 kts | 1° |
| 2026-04-21 22:13 | -23.42889 | -46.48445 | 2467 ft | 8 kts | 25° |
| 2026-04-21 22:13 | -23.42868 | -46.48394 | 2467 ft | 5 kts | 86° |
| 2026-04-21 22:13 | -23.42865 | -46.48358 | 2470 ft | 2 kts | 85° |
| 2026-04-21 22:13 | -23.42864 | -46.48345 | 2467 ft | 0 kts | 85° |